Burbank, CA

08:38 AM PDT am 25. März 2017 (GMT -0700)
Burbank-Glendale-Pasadena | | Change Station

Höhe 778 ft 34.20 °N, 118.36 °W | Updated 45 minutes ago

Heiter
Heiter
54 °F
gefühlte 54 °F
N
5
Wind Wechselnd Wind aus Ost

Heute
Max. -- | schwach -- °F
--% Regenrisiko
Gestern
Max. -- | schwach -- °F
Precip. -- inch
Druck 30.08 inch
Sichtweite 10.0 Meilen
Wolken Heiter
Taupunkt 47 °F
Feuchtigkeit 77%
Regen 0.00 inch
Schneehöhe Nicht verfügbar..
6:49 AM 7:09 PM
Letztes Viertel, 8% visible
METAR KBUR 251453Z 09004KT 10SM CLR 12/08 A3010 RMK AO2 SLP185 T01220083 56001 $
Druck 30.08 inch
Sichtweite 10.0 Meilen
Wolken Heiter
Taupunkt 47 °F
Feuchtigkeit 77%
Regen 0.00 inch
Schneehöhe Nicht verfügbar..
6:49 AM 7:09 PM
Letztes Viertel, 8% visible
METAR KBUR 251453Z 09004KT 10SM CLR 12/08 A3010 RMK AO2 SLP185 T01220083 56001 $

Get Severe Weather Alerts

Thanks for signing up!

Be on the lookout for a verification email in your inbox.

You'll start receiving the daily forecast at 8 AM.

×

10-Day Weather Forecast

Almanac

Astronomie

Mar. 25, 2017 Aufgang Untergang
Genaue Zeit
Bürgerliche Dämmerung
Nautische Dämmerung
Astronomische Dämmerung
Mond
Länge des sichtbaren Lichts
Tageslänge
Tomorrow will be .
, % of the Moon is Illuminated

Heutige Rekorde

State Highs State Lows

Community

WunderPhotos

Upload Photos

1,962,540 Fotos hochgeladen!

WunderBlog® & News

Nearby

Luftqualität

  Luftqualität LQ Index Schadstoff
Not available.

Schneehöhe

Station Depth Höhe

Erdbebenaktivität

Stadt Distance Mag. Time & Date
Minimum magnitude displayed is 2.5.

Erdbebenaktivität

Stadt Distance Mag. Time & Date
Minimum magnitude displayed is 2.5.

küstennahe Wassertemperaturen

Ort Temperatur

Stations

Wetterstationen in der Umgebung

Stationsstandort Temp. Windchill Taupunkt Feuchtigkeit Wind Precip. Höhe Aktualisiert Art
                   

Watches & Warnings

There are currently no watches in effect.